sensor_id;sensor_type;location;lat;lon;timestamp;P1;durP1;ratioP1;P2;durP2;ratioP2
3779;SDS011;1905;52.482;9.802;2023-02-15T00:01:39;17.70;;;10.70;;
3779;SDS011;1905;52.482;9.802;2023-02-15T00:04:08;14.83;;;9.27;;
3779;SDS011;1905;52.482;9.802;2023-02-15T00:06:36;19.40;;;10.07;;
3779;SDS011;1905;52.482;9.802;2023-02-15T00:09:04;19.37;;;9.00;;
3779;SDS011;1905;52.482;9.802;2023-02-15T00:11:31;17.03;;;10.17;;
3779;SDS011;1905;52.482;9.802;2023-02-15T00:14:18;15.80;;;8.77;;
3779;SDS011;1905;52.482;9.802;2023-02-15T00:16:47;13.10;;;9.73;;
3779;SDS011;1905;52.482;9.802;2023-02-15T00:19:16;15.03;;;9.57;;
3779;SDS011;1905;52.482;9.802;2023-02-15T00:21:45;17.27;;;10.90;;
3779;SDS011;1905;52.482;9.802;2023-02-15T00:24:14;13.73;;;9.07;;
3779;SDS011;1905;52.482;9.802;2023-02-15T00:26:43;20.00;;;9.07;;
3779;SDS011;1905;52.482;9.802;2023-02-15T00:29:12;15.57;;;9.07;;
3779;SDS011;1905;52.482;9.802;2023-02-15T00:31:42;10.97;;;7.80;;
3779;SDS011;1905;52.482;9.802;2023-02-15T00:34:11;16.57;;;9.07;;
3779;SDS011;1905;52.482;9.802;2023-02-15T00:36:41;16.90;;;9.60;;
3779;SDS011;1905;52.482;9.802;2023-02-15T00:39:09;12.70;;;7.77;;
3779;SDS011;1905;52.482;9.802;2023-02-15T00:41:37;17.27;;;10.50;;
3779;SDS011;1905;52.482;9.802;2023-02-15T00:44:05;12.70;;;8.90;;
3779;SDS011;1905;52.482;9.802;2023-02-15T00:46:33;15.07;;;8.77;;
3779;SDS011;1905;52.482;9.802;2023-02-15T00:49:03;15.73;;;8.97;;
3779;SDS011;1905;52.482;9.802;2023-02-15T00:51:31;13.13;;;8.20;;
3779;SDS011;1905;52.482;9.802;2023-02-15T00:53:59;15.10;;;8.60;;
3779;SDS011;1905;52.482;9.802;2023-02-15T00:56:28;12.23;;;8.27;;
3779;SDS011;1905;52.482;9.802;2023-02-15T00:58:57;17.27;;;9.53;;
3779;SDS011;1905;52.482;9.802;2023-02-15T01:01:26;22.30;;;10.03;;
3779;SDS011;1905;52.482;9.802;2023-02-15T01:03:54;17.20;;;9.53;;
3779;SDS011;1905;52.482;9.802;2023-02-15T01:06:23;13.13;;;8.70;;
3779;SDS011;1905;52.482;9.802;2023-02-15T01:08:51;12.97;;;7.93;;
3779;SDS011;1905;52.482;9.802;2023-02-15T01:11:19;17.00;;;8.67;;
3779;SDS011;1905;52.482;9.802;2023-02-15T01:13:50;13.43;;;7.80;;
3779;SDS011;1905;52.482;9.802;2023-02-15T01:16:18;15.20;;;8.77;;
3779;SDS011;1905;52.482;9.802;2023-02-15T01:18:47;10.27;;;7.33;;
3779;SDS011;1905;52.482;9.802;2023-02-15T01:21:27;15.77;;;7.83;;
3779;SDS011;1905;52.482;9.802;2023-02-15T01:24:02;13.00;;;8.40;;
3779;SDS011;1905;52.482;9.802;2023-02-15T01:26:38;12.30;;;7.60;;
3779;SDS011;1905;52.482;9.802;2023-02-15T01:29:06;12.80;;;7.37;;
3779;SDS011;1905;52.482;9.802;2023-02-15T01:31:37;15.63;;;8.23;;
3779;SDS011;1905;52.482;9.802;2023-02-15T01:34:13;15.97;;;8.50;;
3779;SDS011;1905;52.482;9.802;2023-02-15T01:36:42;12.43;;;7.50;;
3779;SDS011;1905;52.482;9.802;2023-02-15T01:39:09;13.80;;;8.70;;
3779;SDS011;1905;52.482;9.802;2023-02-15T01:41:39;14.47;;;7.83;;
3779;SDS011;1905;52.482;9.802;2023-02-15T01:47:07;14.33;;;8.30;;
3779;SDS011;1905;52.482;9.802;2023-02-15T01:49:37;10.67;;;7.80;;
3779;SDS011;1905;52.482;9.802;2023-02-15T01:52:08;12.67;;;8.37;;
3779;SDS011;1905;52.482;9.802;2023-02-15T01:54:38;13.47;;;8.30;;
3779;SDS011;1905;52.482;9.802;2023-02-15T01:57:08;14.10;;;8.80;;
3779;SDS011;1905;52.482;9.802;2023-02-15T01:59:39;14.10;;;8.50;;
3779;SDS011;1905;52.482;9.802;2023-02-15T02:02:10;16.93;;;8.90;;
3779;SDS011;1905;52.482;9.802;2023-02-15T02:04:41;11.93;;;8.17;;
3779;SDS011;1905;52.482;9.802;2023-02-15T02:07:19;10.23;;;7.13;;
3779;SDS011;1905;52.482;9.802;2023-02-15T02:09:48;11.90;;;8.00;;
3779;SDS011;1905;52.482;9.802;2023-02-15T02:12:16;16.20;;;7.93;;
3779;SDS011;1905;52.482;9.802;2023-02-15T02:14:44;13.07;;;8.80;;
3779;SDS011;1905;52.482;9.802;2023-02-15T02:17:16;12.10;;;7.57;;
3779;SDS011;1905;52.482;9.802;2023-02-15T02:22:53;13.10;;;8.53;;
3779;SDS011;1905;52.482;9.802;2023-02-15T02:25:48;18.97;;;9.13;;
3779;SDS011;1905;52.482;9.802;2023-02-15T02:28:35;20.70;;;9.00;;
3779;SDS011;1905;52.482;9.802;2023-02-15T02:31:22;16.50;;;8.97;;
3779;SDS011;1905;52.482;9.802;2023-02-15T02:34:05;13.07;;;8.60;;
3779;SDS011;1905;52.482;9.802;2023-02-15T02:36:41;12.97;;;8.00;;
3779;SDS011;1905;52.482;9.802;2023-02-15T02:39:21;12.33;;;8.17;;
3779;SDS011;1905;52.482;9.802;2023-02-15T02:41:58;17.90;;;8.77;;
3779;SDS011;1905;52.482;9.802;2023-02-15T02:44:34;11.93;;;7.90;;
3779;SDS011;1905;52.482;9.802;2023-02-15T02:47:10;10.07;;;7.73;;
3779;SDS011;1905;52.482;9.802;2023-02-15T02:49:44;14.63;;;7.80;;
3779;SDS011;1905;52.482;9.802;2023-02-15T02:55:01;13.63;;;7.90;;
3779;SDS011;1905;52.482;9.802;2023-02-15T02:57:33;14.60;;;7.87;;
3779;SDS011;1905;52.482;9.802;2023-02-15T03:00:02;15.00;;;8.00;;
3779;SDS011;1905;52.482;9.802;2023-02-15T03:02:35;13.43;;;8.10;;
3779;SDS011;1905;52.482;9.802;2023-02-15T03:05:11;10.47;;;6.80;;
3779;SDS011;1905;52.482;9.802;2023-02-15T03:07:43;13.73;;;8.23;;
3779;SDS011;1905;52.482;9.802;2023-02-15T03:10:17;13.03;;;7.33;;
3779;SDS011;1905;52.482;9.802;2023-02-15T03:12:49;12.10;;;8.47;;
3779;SDS011;1905;52.482;9.802;2023-02-15T03:15:19;13.77;;;8.90;;
3779;SDS011;1905;52.482;9.802;2023-02-15T03:17:49;14.30;;;9.33;;
3779;SDS011;1905;52.482;9.802;2023-02-15T03:20:24;13.80;;;8.00;;
3779;SDS011;1905;52.482;9.802;2023-02-15T03:22:59;12.10;;;7.63;;
3779;SDS011;1905;52.482;9.802;2023-02-15T03:25:32;11.20;;;7.67;;
3779;SDS011;1905;52.482;9.802;2023-02-15T03:28:05;15.83;;;8.57;;
3779;SDS011;1905;52.482;9.802;2023-02-15T03:30:35;16.17;;;8.57;;
3779;SDS011;1905;52.482;9.802;2023-02-15T03:33:05;14.60;;;8.33;;
3779;SDS011;1905;52.482;9.802;2023-02-15T03:35:38;17.73;;;8.13;;
3779;SDS011;1905;52.482;9.802;2023-02-15T03:38:10;14.93;;;7.90;;
3779;SDS011;1905;52.482;9.802;2023-02-15T03:40:43;16.77;;;9.00;;
3779;SDS011;1905;52.482;9.802;2023-02-15T03:43:34;17.50;;;9.17;;
3779;SDS011;1905;52.482;9.802;2023-02-15T03:46:08;20.97;;;9.10;;
3779;SDS011;1905;52.482;9.802;2023-02-15T03:48:43;14.40;;;9.07;;
3779;SDS011;1905;52.482;9.802;2023-02-15T03:51:16;13.80;;;7.60;;
3779;SDS011;1905;52.482;9.802;2023-02-15T03:54:01;18.17;;;10.30;;
3779;SDS011;1905;52.482;9.802;2023-02-15T03:56:31;15.27;;;8.33;;
3779;SDS011;1905;52.482;9.802;2023-02-15T03:59:01;21.77;;;10.63;;
3779;SDS011;1905;52.482;9.802;2023-02-15T04:01:52;17.10;;;9.40;;
3779;SDS011;1905;52.482;9.802;2023-02-15T04:04:33;13.73;;;7.90;;
3779;SDS011;1905;52.482;9.802;2023-02-15T04:07:05;16.17;;;9.50;;
3779;SDS011;1905;52.482;9.802;2023-02-15T04:09:34;15.90;;;9.90;;
3779;SDS011;1905;52.482;9.802;2023-02-15T04:12:20;16.27;;;8.10;;
3779;SDS011;1905;52.482;9.802;2023-02-15T04:14:47;18.40;;;8.03;;
3779;SDS011;1905;52.482;9.802;2023-02-15T04:17:33;15.57;;;8.97;;
3779;SDS011;1905;52.482;9.802;2023-02-15T04:20:00;14.17;;;7.57;;
3779;SDS011;1905;52.482;9.802;2023-02-15T04:22:47;13.70;;;7.47;;
3779;SDS011;1905;52.482;9.802;2023-02-15T04:25:32;14.87;;;8.17;;
3779;SDS011;1905;52.482;9.802;2023-02-15T04:28:00;11.40;;;7.53;;
3779;SDS011;1905;52.482;9.802;2023-02-15T04:30:27;21.93;;;9.17;;
3779;SDS011;1905;52.482;9.802;2023-02-15T04:32:55;15.93;;;8.70;;
3779;SDS011;1905;52.482;9.802;2023-02-15T04:35:23;16.70;;;8.70;;
3779;SDS011;1905;52.482;9.802;2023-02-15T04:37:53;15.60;;;7.97;;
3779;SDS011;1905;52.482;9.802;2023-02-15T04:40:21;15.30;;;8.27;;
3779;SDS011;1905;52.482;9.802;2023-02-15T04:42:49;14.63;;;8.90;;
3779;SDS011;1905;52.482;9.802;2023-02-15T04:45:17;16.13;;;7.50;;
3779;SDS011;1905;52.482;9.802;2023-02-15T04:47:44;16.90;;;9.63;;
3779;SDS011;1905;52.482;9.802;2023-02-15T04:50:12;14.77;;;8.40;;
3779;SDS011;1905;52.482;9.802;2023-02-15T04:52:40;15.53;;;8.90;;
3779;SDS011;1905;52.482;9.802;2023-02-15T04:55:08;14.30;;;8.03;;
3779;SDS011;1905;52.482;9.802;2023-02-15T04:57:36;19.33;;;8.33;;
3779;SDS011;1905;52.482;9.802;2023-02-15T05:00:04;13.17;;;8.63;;
3779;SDS011;1905;52.482;9.802;2023-02-15T05:02:32;14.50;;;9.37;;
3779;SDS011;1905;52.482;9.802;2023-02-15T05:05:00;17.50;;;9.37;;
3779;SDS011;1905;52.482;9.802;2023-02-15T05:07:27;11.93;;;7.40;;
3779;SDS011;1905;52.482;9.802;2023-02-15T05:09:55;12.93;;;8.00;;
3779;SDS011;1905;52.482;9.802;2023-02-15T05:12:23;13.57;;;9.87;;
3779;SDS011;1905;52.482;9.802;2023-02-15T05:14:51;13.50;;;9.10;;
3779;SDS011;1905;52.482;9.802;2023-02-15T05:17:18;12.27;;;8.30;;
3779;SDS011;1905;52.482;9.802;2023-02-15T05:19:46;18.60;;;8.77;;
3779;SDS011;1905;52.482;9.802;2023-02-15T05:22:13;13.23;;;8.80;;
3779;SDS011;1905;52.482;9.802;2023-02-15T05:24:41;16.93;;;8.43;;
3779;SDS011;1905;52.482;9.802;2023-02-15T05:27:27;13.33;;;8.57;;
3779;SDS011;1905;52.482;9.802;2023-02-15T05:30:13;15.43;;;8.13;;
3779;SDS011;1905;52.482;9.802;2023-02-15T05:32:41;10.60;;;7.43;;
3779;SDS011;1905;52.482;9.802;2023-02-15T05:35:11;14.70;;;8.03;;
3779;SDS011;1905;52.482;9.802;2023-02-15T05:37:40;12.47;;;7.30;;
3779;SDS011;1905;52.482;9.802;2023-02-15T05:40:09;18.20;;;8.37;;
3779;SDS011;1905;52.482;9.802;2023-02-15T05:42:38;12.20;;;7.00;;
3779;SDS011;1905;52.482;9.802;2023-02-15T05:45:06;10.90;;;8.70;;
3779;SDS011;1905;52.482;9.802;2023-02-15T05:47:34;11.90;;;6.33;;
3779;SDS011;1905;52.482;9.802;2023-02-15T05:50:01;11.20;;;7.83;;
3779;SDS011;1905;52.482;9.802;2023-02-15T05:52:29;14.43;;;7.77;;
3779;SDS011;1905;52.482;9.802;2023-02-15T05:54:56;12.67;;;8.50;;
3779;SDS011;1905;52.482;9.802;2023-02-15T05:57:25;11.70;;;8.33;;
3779;SDS011;1905;52.482;9.802;2023-02-15T05:59:54;10.27;;;7.33;;
3779;SDS011;1905;52.482;9.802;2023-02-15T06:02:21;13.17;;;8.03;;
3779;SDS011;1905;52.482;9.802;2023-02-15T06:04:49;10.40;;;7.47;;
3779;SDS011;1905;52.482;9.802;2023-02-15T06:07:16;11.20;;;6.90;;
3779;SDS011;1905;52.482;9.802;2023-02-15T06:09:44;13.27;;;8.10;;
3779;SDS011;1905;52.482;9.802;2023-02-15T06:12:11;13.87;;;7.77;;
3779;SDS011;1905;52.482;9.802;2023-02-15T06:14:38;12.47;;;6.73;;
3779;SDS011;1905;52.482;9.802;2023-02-15T06:17:07;16.40;;;9.00;;
3779;SDS011;1905;52.482;9.802;2023-02-15T06:19:35;11.63;;;7.90;;
3779;SDS011;1905;52.482;9.802;2023-02-15T06:22:02;14.73;;;8.30;;
3779;SDS011;1905;52.482;9.802;2023-02-15T06:24:30;15.60;;;8.30;;
3779;SDS011;1905;52.482;9.802;2023-02-15T06:26:57;14.50;;;7.43;;
3779;SDS011;1905;52.482;9.802;2023-02-15T06:29:25;17.93;;;8.57;;
3779;SDS011;1905;52.482;9.802;2023-02-15T06:31:52;13.23;;;7.90;;
3779;SDS011;1905;52.482;9.802;2023-02-15T06:34:21;23.07;;;9.20;;
3779;SDS011;1905;52.482;9.802;2023-02-15T06:36:49;11.87;;;7.70;;
3779;SDS011;1905;52.482;9.802;2023-02-15T06:39:16;9.60;;;7.43;;
3779;SDS011;1905;52.482;9.802;2023-02-15T06:41:44;15.37;;;9.87;;
3779;SDS011;1905;52.482;9.802;2023-02-15T06:44:11;11.23;;;7.47;;
3779;SDS011;1905;52.482;9.802;2023-02-15T06:46:39;10.13;;;8.80;;
3779;SDS011;1905;52.482;9.802;2023-02-15T06:49:06;14.47;;;8.67;;
3779;SDS011;1905;52.482;9.802;2023-02-15T06:51:36;12.00;;;7.80;;
3779;SDS011;1905;52.482;9.802;2023-02-15T06:54:04;12.43;;;8.43;;
3779;SDS011;1905;52.482;9.802;2023-02-15T06:56:31;14.23;;;8.90;;
3779;SDS011;1905;52.482;9.802;2023-02-15T06:58:59;12.93;;;7.47;;
3779;SDS011;1905;52.482;9.802;2023-02-15T07:01:27;11.53;;;7.60;;
3779;SDS011;1905;52.482;9.802;2023-02-15T07:03:54;12.27;;;8.87;;
3779;SDS011;1905;52.482;9.802;2023-02-15T07:06:22;14.90;;;8.27;;
3779;SDS011;1905;52.482;9.802;2023-02-15T07:08:50;16.13;;;9.97;;
3779;SDS011;1905;52.482;9.802;2023-02-15T07:11:18;10.10;;;8.17;;
3779;SDS011;1905;52.482;9.802;2023-02-15T07:14:03;12.63;;;7.83;;
3779;SDS011;1905;52.482;9.802;2023-02-15T07:16:31;12.07;;;8.47;;
3779;SDS011;1905;52.482;9.802;2023-02-15T07:18:58;14.80;;;8.73;;
3779;SDS011;1905;52.482;9.802;2023-02-15T07:21:26;12.93;;;7.97;;
3779;SDS011;1905;52.482;9.802;2023-02-15T07:23:57;13.83;;;8.23;;
3779;SDS011;1905;52.482;9.802;2023-02-15T07:26:24;15.10;;;9.23;;
3779;SDS011;1905;52.482;9.802;2023-02-15T07:28:52;14.17;;;9.20;;
3779;SDS011;1905;52.482;9.802;2023-02-15T07:31:20;16.07;;;9.90;;
3779;SDS011;1905;52.482;9.802;2023-02-15T07:33:47;17.90;;;9.77;;
3779;SDS011;1905;52.482;9.802;2023-02-15T07:36:15;14.20;;;8.63;;
3779;SDS011;1905;52.482;9.802;2023-02-15T07:38:42;15.43;;;7.83;;
3779;SDS011;1905;52.482;9.802;2023-02-15T07:41:12;11.57;;;6.87;;
3779;SDS011;1905;52.482;9.802;2023-02-15T07:43:42;13.37;;;7.90;;
3779;SDS011;1905;52.482;9.802;2023-02-15T07:46:13;20.13;;;8.33;;
3779;SDS011;1905;52.482;9.802;2023-02-15T07:48:43;15.50;;;10.37;;
3779;SDS011;1905;52.482;9.802;2023-02-15T07:51:11;19.43;;;10.37;;
3779;SDS011;1905;52.482;9.802;2023-02-15T07:53:40;16.73;;;8.67;;
3779;SDS011;1905;52.482;9.802;2023-02-15T07:56:09;12.17;;;9.50;;
3779;SDS011;1905;52.482;9.802;2023-02-15T07:58:39;15.60;;;10.77;;
3779;SDS011;1905;52.482;9.802;2023-02-15T08:01:19;13.10;;;8.13;;
3779;SDS011;1905;52.482;9.802;2023-02-15T08:03:49;16.60;;;10.67;;
3779;SDS011;1905;52.482;9.802;2023-02-15T08:06:17;12.60;;;8.40;;
3779;SDS011;1905;52.482;9.802;2023-02-15T08:08:45;16.83;;;10.37;;
3779;SDS011;1905;52.482;9.802;2023-02-15T08:11:17;17.80;;;11.73;;
3779;SDS011;1905;52.482;9.802;2023-02-15T08:14:04;18.77;;;10.60;;
3779;SDS011;1905;52.482;9.802;2023-02-15T08:16:34;20.50;;;11.60;;
3779;SDS011;1905;52.482;9.802;2023-02-15T08:19:04;19.30;;;10.57;;
3779;SDS011;1905;52.482;9.802;2023-02-15T08:21:34;19.47;;;10.33;;
3779;SDS011;1905;52.482;9.802;2023-02-15T08:24:03;12.80;;;10.40;;
3779;SDS011;1905;52.482;9.802;2023-02-15T08:26:32;17.37;;;10.80;;
3779;SDS011;1905;52.482;9.802;2023-02-15T08:29:00;16.50;;;11.47;;
3779;SDS011;1905;52.482;9.802;2023-02-15T08:31:30;16.87;;;9.70;;
3779;SDS011;1905;52.482;9.802;2023-02-15T08:33:57;13.73;;;9.67;;
3779;SDS011;1905;52.482;9.802;2023-02-15T08:36:26;20.93;;;11.17;;
3779;SDS011;1905;52.482;9.802;2023-02-15T08:38:57;19.73;;;10.47;;
3779;SDS011;1905;52.482;9.802;2023-02-15T08:41:26;18.70;;;10.50;;
3779;SDS011;1905;52.482;9.802;2023-02-15T08:43:56;20.70;;;10.50;;
3779;SDS011;1905;52.482;9.802;2023-02-15T08:46:26;16.40;;;9.27;;
3779;SDS011;1905;52.482;9.802;2023-02-15T08:48:56;20.60;;;10.93;;
3779;SDS011;1905;52.482;9.802;2023-02-15T08:51:25;21.10;;;10.70;;
3779;SDS011;1905;52.482;9.802;2023-02-15T08:53:59;27.53;;;11.20;;
3779;SDS011;1905;52.482;9.802;2023-02-15T08:56:30;21.80;;;11.20;;
3779;SDS011;1905;52.482;9.802;2023-02-15T08:59:00;20.83;;;11.47;;
3779;SDS011;1905;52.482;9.802;2023-02-15T09:01:28;24.50;;;13.50;;
3779;SDS011;1905;52.482;9.802;2023-02-15T09:03:59;26.90;;;12.43;;
3779;SDS011;1905;52.482;9.802;2023-02-15T09:06:28;22.63;;;11.90;;
3779;SDS011;1905;52.482;9.802;2023-02-15T09:08:56;19.20;;;11.80;;
3779;SDS011;1905;52.482;9.802;2023-02-15T09:11:24;23.20;;;12.47;;
3779;SDS011;1905;52.482;9.802;2023-02-15T09:13:55;21.13;;;11.60;;
3779;SDS011;1905;52.482;9.802;2023-02-15T09:16:26;23.50;;;11.80;;
3779;SDS011;1905;52.482;9.802;2023-02-15T09:18:55;23.53;;;12.03;;
3779;SDS011;1905;52.482;9.802;2023-02-15T09:21:25;26.50;;;14.27;;
3779;SDS011;1905;52.482;9.802;2023-02-15T09:23:55;19.90;;;12.27;;
3779;SDS011;1905;52.482;9.802;2023-02-15T09:26:24;22.87;;;12.80;;
3779;SDS011;1905;52.482;9.802;2023-02-15T09:28:52;22.37;;;12.73;;
3779;SDS011;1905;52.482;9.802;2023-02-15T09:31:24;27.47;;;13.30;;
3779;SDS011;1905;52.482;9.802;2023-02-15T09:33:53;20.17;;;12.10;;
3779;SDS011;1905;52.482;9.802;2023-02-15T09:36:22;25.70;;;13.97;;
3779;SDS011;1905;52.482;9.802;2023-02-15T09:38:53;29.20;;;13.30;;
3779;SDS011;1905;52.482;9.802;2023-02-15T09:41:28;24.53;;;13.60;;
3779;SDS011;1905;52.482;9.802;2023-02-15T09:44:11;26.33;;;13.93;;
3779;SDS011;1905;52.482;9.802;2023-02-15T09:46:56;31.83;;;14.07;;
3779;SDS011;1905;52.482;9.802;2023-02-15T09:49:33;28.57;;;15.43;;
3779;SDS011;1905;52.482;9.802;2023-02-15T09:52:13;27.53;;;14.07;;
3779;SDS011;1905;52.482;9.802;2023-02-15T09:54:56;31.17;;;16.27;;
3779;SDS011;1905;52.482;9.802;2023-02-15T09:57:36;31.50;;;14.50;;
3779;SDS011;1905;52.482;9.802;2023-02-15T10:00:16;33.47;;;14.87;;
3779;SDS011;1905;52.482;9.802;2023-02-15T10:02:58;31.90;;;16.83;;
3779;SDS011;1905;52.482;9.802;2023-02-15T10:05:40;27.67;;;14.70;;
3779;SDS011;1905;52.482;9.802;2023-02-15T10:08:24;27.53;;;13.90;;
3779;SDS011;1905;52.482;9.802;2023-02-15T10:11:06;32.73;;;14.47;;
3779;SDS011;1905;52.482;9.802;2023-02-15T10:14:02;30.27;;;14.80;;
3779;SDS011;1905;52.482;9.802;2023-02-15T10:16:41;37.73;;;16.40;;
3779;SDS011;1905;52.482;9.802;2023-02-15T10:19:19;33.37;;;16.10;;
3779;SDS011;1905;52.482;9.802;2023-02-15T10:22:03;31.70;;;15.50;;
3779;SDS011;1905;52.482;9.802;2023-02-15T10:24:46;30.73;;;13.87;;
3779;SDS011;1905;52.482;9.802;2023-02-15T10:27:33;36.47;;;16.43;;
3779;SDS011;1905;52.482;9.802;2023-02-15T10:30:08;30.97;;;16.67;;
3779;SDS011;1905;52.482;9.802;2023-02-15T10:32:38;29.33;;;14.43;;
3779;SDS011;1905;52.482;9.802;2023-02-15T10:35:16;23.57;;;13.87;;
3779;SDS011;1905;52.482;9.802;2023-02-15T10:37:52;31.27;;;16.57;;
3779;SDS011;1905;52.482;9.802;2023-02-15T10:40:34;27.97;;;14.50;;
3779;SDS011;1905;52.482;9.802;2023-02-15T10:43:23;33.13;;;14.60;;
3779;SDS011;1905;52.482;9.802;2023-02-15T10:46:07;26.93;;;13.03;;
3779;SDS011;1905;52.482;9.802;2023-02-15T10:48:54;34.10;;;16.10;;
3779;SDS011;1905;52.482;9.802;2023-02-15T10:51:45;35.00;;;12.37;;
3779;SDS011;1905;52.482;9.802;2023-02-15T10:54:27;27.57;;;15.43;;
3779;SDS011;1905;52.482;9.802;2023-02-15T10:57:09;31.67;;;14.70;;
3779;SDS011;1905;52.482;9.802;2023-02-15T10:59:53;25.30;;;12.30;;
3779;SDS011;1905;52.482;9.802;2023-02-15T11:02:33;25.70;;;13.90;;
3779;SDS011;1905;52.482;9.802;2023-02-15T11:05:24;28.50;;;14.20;;
3779;SDS011;1905;52.482;9.802;2023-02-15T11:08:02;30.43;;;14.70;;
3779;SDS011;1905;52.482;9.802;2023-02-15T11:10:48;31.40;;;13.43;;
3779;SDS011;1905;52.482;9.802;2023-02-15T11:13:20;28.60;;;14.10;;
3779;SDS011;1905;52.482;9.802;2023-02-15T11:15:53;21.43;;;10.90;;
3779;SDS011;1905;52.482;9.802;2023-02-15T11:18:27;24.47;;;11.37;;
3779;SDS011;1905;52.482;9.802;2023-02-15T11:21:01;19.07;;;11.17;;
3779;SDS011;1905;52.482;9.802;2023-02-15T11:23:31;17.23;;;9.60;;
3779;SDS011;1905;52.482;9.802;2023-02-15T11:26:03;19.33;;;10.47;;
3779;SDS011;1905;52.482;9.802;2023-02-15T11:28:38;17.60;;;10.47;;
3779;SDS011;1905;52.482;9.802;2023-02-15T11:31:12;21.43;;;11.10;;
3779;SDS011;1905;52.482;9.802;2023-02-15T11:33:45;20.30;;;11.30;;
3779;SDS011;1905;52.482;9.802;2023-02-15T11:36:17;20.83;;;11.37;;
3779;SDS011;1905;52.482;9.802;2023-02-15T11:38:49;17.47;;;10.00;;
3779;SDS011;1905;52.482;9.802;2023-02-15T11:41:22;15.23;;;9.60;;
3779;SDS011;1905;52.482;9.802;2023-02-15T11:43:56;26.90;;;11.90;;
3779;SDS011;1905;52.482;9.802;2023-02-15T11:46:29;18.30;;;11.77;;
3779;SDS011;1905;52.482;9.802;2023-02-15T11:48:57;19.63;;;12.27;;
3779;SDS011;1905;52.482;9.802;2023-02-15T11:51:25;20.80;;;10.70;;
3779;SDS011;1905;52.482;9.802;2023-02-15T11:53:54;16.50;;;10.53;;
3779;SDS011;1905;52.482;9.802;2023-02-15T11:56:23;16.63;;;9.47;;
3779;SDS011;1905;52.482;9.802;2023-02-15T11:58:53;19.80;;;10.90;;
3779;SDS011;1905;52.482;9.802;2023-02-15T12:01:28;19.03;;;10.20;;
3779;SDS011;1905;52.482;9.802;2023-02-15T12:03:59;19.73;;;10.20;;
3779;SDS011;1905;52.482;9.802;2023-02-15T12:06:32;19.73;;;10.10;;
3779;SDS011;1905;52.482;9.802;2023-02-15T12:09:03;16.00;;;9.93;;
3779;SDS011;1905;52.482;9.802;2023-02-15T12:11:35;16.00;;;10.23;;
3779;SDS011;1905;52.482;9.802;2023-02-15T12:14:06;18.60;;;9.40;;
3779;SDS011;1905;52.482;9.802;2023-02-15T12:16:40;17.27;;;10.67;;
3779;SDS011;1905;52.482;9.802;2023-02-15T12:19:13;21.90;;;10.57;;
3779;SDS011;1905;52.482;9.802;2023-02-15T12:21:51;15.43;;;9.20;;
3779;SDS011;1905;52.482;9.802;2023-02-15T12:24:20;22.23;;;10.47;;
3779;SDS011;1905;52.482;9.802;2023-02-15T12:26:56;19.23;;;11.47;;
3779;SDS011;1905;52.482;9.802;2023-02-15T12:29:27;20.10;;;10.30;;
3779;SDS011;1905;52.482;9.802;2023-02-15T12:31:57;17.90;;;9.33;;
3779;SDS011;1905;52.482;9.802;2023-02-15T12:34:27;21.57;;;11.70;;
3779;SDS011;1905;52.482;9.802;2023-02-15T12:37:00;20.57;;;11.67;;
3779;SDS011;1905;52.482;9.802;2023-02-15T12:39:30;18.43;;;9.23;;
3779;SDS011;1905;52.482;9.802;2023-02-15T12:42:00;15.30;;;9.47;;
3779;SDS011;1905;52.482;9.802;2023-02-15T12:44:32;18.70;;;11.30;;
3779;SDS011;1905;52.482;9.802;2023-02-15T12:47:02;19.70;;;10.93;;
3779;SDS011;1905;52.482;9.802;2023-02-15T12:49:32;18.93;;;11.07;;
3779;SDS011;1905;52.482;9.802;2023-02-15T12:52:02;14.47;;;10.60;;
3779;SDS011;1905;52.482;9.802;2023-02-15T12:54:34;33.93;;;11.77;;
3779;SDS011;1905;52.482;9.802;2023-02-15T12:57:15;21.23;;;11.27;;
3779;SDS011;1905;52.482;9.802;2023-02-15T12:59:51;17.53;;;10.10;;
3779;SDS011;1905;52.482;9.802;2023-02-15T13:02:21;21.97;;;11.37;;
3779;SDS011;1905;52.482;9.802;2023-02-15T13:04:53;24.53;;;10.80;;
3779;SDS011;1905;52.482;9.802;2023-02-15T13:07:24;16.73;;;9.90;;
3779;SDS011;1905;52.482;9.802;2023-02-15T13:09:57;21.87;;;12.17;;
3779;SDS011;1905;52.482;9.802;2023-02-15T13:12:26;18.53;;;10.00;;
3779;SDS011;1905;52.482;9.802;2023-02-15T13:14:58;22.23;;;11.40;;
3779;SDS011;1905;52.482;9.802;2023-02-15T13:17:29;19.40;;;10.93;;
3779;SDS011;1905;52.482;9.802;2023-02-15T13:20:00;26.27;;;11.20;;
3779;SDS011;1905;52.482;9.802;2023-02-15T13:22:32;16.30;;;9.67;;
3779;SDS011;1905;52.482;9.802;2023-02-15T13:25:10;15.73;;;9.83;;
3779;SDS011;1905;52.482;9.802;2023-02-15T13:27:41;19.77;;;11.00;;
3779;SDS011;1905;52.482;9.802;2023-02-15T13:30:19;18.73;;;10.03;;
3779;SDS011;1905;52.482;9.802;2023-02-15T13:32:51;21.50;;;10.50;;
3779;SDS011;1905;52.482;9.802;2023-02-15T13:35:21;20.30;;;10.30;;
3779;SDS011;1905;52.482;9.802;2023-02-15T13:38:00;17.60;;;9.03;;
3779;SDS011;1905;52.482;9.802;2023-02-15T13:40:35;20.47;;;10.47;;
3779;SDS011;1905;52.482;9.802;2023-02-15T13:43:13;19.50;;;10.77;;
3779;SDS011;1905;52.482;9.802;2023-02-15T13:45:57;18.50;;;11.07;;
3779;SDS011;1905;52.482;9.802;2023-02-15T13:48:38;20.27;;;10.53;;
3779;SDS011;1905;52.482;9.802;2023-02-15T13:51:18;16.33;;;10.30;;
3779;SDS011;1905;52.482;9.802;2023-02-15T13:53:56;19.87;;;10.00;;
3779;SDS011;1905;52.482;9.802;2023-02-15T13:56:34;17.90;;;9.70;;
3779;SDS011;1905;52.482;9.802;2023-02-15T13:59:21;15.73;;;10.37;;
3779;SDS011;1905;52.482;9.802;2023-02-15T14:02:04;19.30;;;10.97;;
3779;SDS011;1905;52.482;9.802;2023-02-15T14:04:59;17.43;;;10.37;;
3779;SDS011;1905;52.482;9.802;2023-02-15T14:07:56;21.23;;;10.40;;
3779;SDS011;1905;52.482;9.802;2023-02-15T14:10:36;17.27;;;10.70;;
3779;SDS011;1905;52.482;9.802;2023-02-15T14:13:16;16.67;;;10.07;;
3779;SDS011;1905;52.482;9.802;2023-02-15T14:16:03;18.50;;;9.90;;
3779;SDS011;1905;52.482;9.802;2023-02-15T14:18:39;20.40;;;12.00;;
3779;SDS011;1905;52.482;9.802;2023-02-15T14:21:14;15.47;;;10.47;;
3779;SDS011;1905;52.482;9.802;2023-02-15T14:23:49;18.83;;;11.57;;
3779;SDS011;1905;52.482;9.802;2023-02-15T14:26:26;16.63;;;10.40;;
3779;SDS011;1905;52.482;9.802;2023-02-15T14:29:07;16.90;;;10.33;;
3779;SDS011;1905;52.482;9.802;2023-02-15T14:31:45;15.40;;;9.50;;
3779;SDS011;1905;52.482;9.802;2023-02-15T14:34:19;14.10;;;9.80;;
3779;SDS011;1905;52.482;9.802;2023-02-15T14:36:51;17.17;;;9.73;;
3779;SDS011;1905;52.482;9.802;2023-02-15T14:39:23;18.30;;;10.70;;
3779;SDS011;1905;52.482;9.802;2023-02-15T14:42:18;20.60;;;10.50;;
3779;SDS011;1905;52.482;9.802;2023-02-15T14:44:54;16.20;;;10.47;;
3779;SDS011;1905;52.482;9.802;2023-02-15T14:47:28;14.27;;;9.13;;
3779;SDS011;1905;52.482;9.802;2023-02-15T14:50:14;16.30;;;10.37;;
3779;SDS011;1905;52.482;9.802;2023-02-15T14:53:17;21.70;;;12.27;;
3779;SDS011;1905;52.482;9.802;2023-02-15T15:01:40;17.57;;;11.23;;
3779;SDS011;1905;52.482;9.802;2023-02-15T15:04:10;20.43;;;10.70;;
3779;SDS011;1905;52.482;9.802;2023-02-15T15:06:42;18.37;;;10.23;;
3779;SDS011;1905;52.482;9.802;2023-02-15T15:09:11;15.10;;;9.40;;
3779;SDS011;1905;52.482;9.802;2023-02-15T15:11:45;22.23;;;10.40;;
3779;SDS011;1905;52.482;9.802;2023-02-15T15:17:08;19.13;;;10.00;;
3779;SDS011;1905;52.482;9.802;2023-02-15T15:22:35;17.10;;;11.10;;
3779;SDS011;1905;52.482;9.802;2023-02-15T15:25:04;19.60;;;11.77;;
3779;SDS011;1905;52.482;9.802;2023-02-15T15:27:46;14.77;;;9.33;;
3779;SDS011;1905;52.482;9.802;2023-02-15T15:39:47;15.43;;;9.50;;
3779;SDS011;1905;52.482;9.802;2023-02-15T15:42:43;14.17;;;9.77;;
3779;SDS011;1905;52.482;9.802;2023-02-15T15:45:38;15.87;;;10.30;;
3779;SDS011;1905;52.482;9.802;2023-02-15T15:48:29;16.27;;;9.90;;
3779;SDS011;1905;52.482;9.802;2023-02-15T15:51:00;17.40;;;12.17;;
3779;SDS011;1905;52.482;9.802;2023-02-15T15:53:33;18.03;;;11.33;;
3779;SDS011;1905;52.482;9.802;2023-02-15T15:56:11;17.03;;;10.90;;
3779;SDS011;1905;52.482;9.802;2023-02-15T15:58:43;20.27;;;11.07;;
3779;SDS011;1905;52.482;9.802;2023-02-15T16:01:13;18.00;;;10.87;;